createdAt,value
2018-07-14T00:01:09.939Z,7.00
2018-07-14T00:06:02.526Z,7.77
2018-07-14T00:10:55.090Z,7.87
2018-07-14T00:15:47.783Z,8.07
2018-07-14T00:20:40.358Z,7.93
2018-07-14T00:25:38.646Z,8.03
2018-07-14T00:30:31.231Z,8.57
2018-07-14T00:35:23.821Z,8.97
2018-07-14T00:40:16.516Z,8.50
2018-07-14T00:45:09.111Z,9.07
2018-07-14T00:50:01.660Z,8.17
2018-07-14T00:54:54.258Z,9.27
2018-07-14T00:59:46.812Z,9.23
2018-07-14T01:04:39.382Z,9.03
2018-07-14T01:09:31.987Z,9.10
2018-07-14T01:14:24.532Z,8.77
2018-07-14T01:19:17.134Z,9.43
2018-07-14T01:24:09.632Z,9.50
2018-07-14T01:29:02.367Z,9.03
2018-07-14T01:33:54.946Z,10.03
2018-07-14T01:38:47.466Z,8.47
2018-07-14T01:43:40.032Z,9.23
2018-07-14T01:48:32.604Z,9.03
2018-07-14T01:53:25.190Z,9.50
2018-07-14T01:58:17.763Z,9.20
2018-07-14T02:03:10.342Z,9.20
2018-07-14T02:08:02.940Z,9.07
2018-07-14T02:12:55.499Z,9.07
2018-07-14T02:17:48.072Z,9.63
2018-07-14T02:22:40.681Z,9.67
2018-07-14T02:27:33.303Z,9.43
2018-07-14T02:32:25.858Z,9.57
2018-07-14T02:37:18.480Z,9.70
2018-07-14T02:42:11.113Z,9.03
2018-07-14T02:47:03.904Z,9.43
2018-07-14T02:51:56.481Z,9.40
2018-07-14T02:56:49.098Z,9.70
2018-07-14T03:01:41.768Z,9.70
2018-07-14T03:06:34.350Z,10.60
2018-07-14T03:11:26.980Z,9.90
2018-07-14T03:16:19.560Z,10.13
2018-07-14T03:21:12.243Z,10.90
2018-07-14T03:26:04.814Z,10.70
2018-07-14T03:30:57.419Z,10.33
2018-07-14T03:35:50.004Z,9.83
2018-07-14T03:40:42.614Z,10.13
2018-07-14T03:45:35.207Z,10.13
2018-07-14T03:50:27.954Z,10.60
2018-07-14T03:55:20.542Z,10.23
2018-07-14T04:00:13.155Z,11.03
2018-07-14T04:05:05.735Z,10.33
2018-07-14T04:09:58.367Z,12.70
2018-07-14T04:14:50.991Z,11.70
2018-07-14T04:19:43.534Z,11.80
2018-07-14T04:24:36.168Z,11.40
2018-07-14T04:29:28.930Z,11.10
2018-07-14T04:34:21.514Z,11.03
2018-07-14T04:39:14.296Z,11.33
2018-07-14T04:44:06.860Z,11.23
2018-07-14T04:48:59.401Z,11.60
2018-07-14T04:53:51.997Z,11.63
2018-07-14T04:58:44.599Z,11.93
2018-07-14T05:03:37.202Z,11.50
2018-07-14T05:08:29.826Z,11.70
2018-07-14T05:13:22.394Z,11.47
2018-07-14T05:18:14.996Z,11.97
2018-07-14T05:23:07.795Z,12.03
2018-07-14T05:28:00.417Z,11.53
2018-07-14T05:32:53.074Z,11.57
2018-07-14T05:37:45.659Z,11.73
2018-07-14T05:42:38.314Z,11.33
2018-07-14T05:47:31.014Z,11.73
2018-07-14T05:52:23.647Z,11.70
2018-07-14T05:57:16.275Z,11.43
2018-07-14T06:02:08.871Z,10.77
2018-07-14T06:07:01.497Z,11.67
2018-07-14T06:11:54.090Z,11.00
2018-07-14T06:16:46.687Z,11.10
2018-07-14T06:21:39.334Z,10.93
2018-07-14T06:26:31.948Z,11.77
2018-07-14T06:31:24.591Z,12.03
2018-07-14T06:36:17.258Z,10.27
2018-07-14T06:41:09.914Z,10.53
2018-07-14T06:46:02.679Z,10.27
2018-07-14T06:50:55.296Z,10.80
2018-07-14T06:55:47.921Z,9.93
2018-07-14T07:00:40.554Z,10.77
2018-07-14T07:05:33.168Z,10.43
2018-07-14T07:10:25.742Z,11.13
2018-07-14T07:15:18.357Z,10.20
2018-07-14T07:20:11.241Z,11.17
2018-07-14T07:25:03.920Z,11.80
2018-07-14T07:29:56.522Z,11.80
2018-07-14T07:34:49.161Z,10.13
2018-07-14T07:39:41.871Z,10.53
2018-07-14T07:44:34.516Z,9.50
2018-07-14T07:49:27.165Z,9.50
2018-07-14T07:54:19.748Z,8.60
2018-07-14T07:59:12.296Z,8.60
2018-07-14T08:04:05.046Z,8.77
2018-07-14T08:08:57.622Z,8.63
2018-07-14T08:13:50.163Z,8.97
2018-07-14T08:18:42.958Z,8.30
2018-07-14T08:23:35.555Z,8.10
2018-07-14T08:28:28.158Z,8.07
2018-07-14T08:33:21.739Z,8.03
2018-07-14T08:38:14.413Z,7.63
2018-07-14T08:43:07.041Z,7.20
2018-07-14T08:47:59.656Z,7.33
2018-07-14T08:52:52.259Z,7.93
2018-07-14T08:57:44.874Z,7.30
2018-07-14T09:02:37.729Z,7.70
2018-07-14T09:07:30.309Z,6.60
2018-07-14T09:12:23.262Z,6.80
2018-07-14T09:17:15.966Z,6.60
2018-07-14T09:22:08.559Z,6.83
2018-07-14T09:27:01.186Z,6.53
2018-07-14T09:31:53.791Z,7.17
2018-07-14T09:36:46.391Z,6.60
2018-07-14T09:41:39.083Z,7.80
2018-07-14T09:46:31.652Z,6.90
2018-07-14T09:51:24.286Z,6.63
2018-07-14T09:56:16.977Z,6.97
2018-07-14T10:01:10.487Z,6.53
2018-07-14T10:06:03.227Z,6.30
2018-07-14T10:10:55.902Z,7.00
2018-07-14T10:15:48.543Z,5.80
2018-07-14T10:20:41.315Z,6.47
2018-07-14T10:25:33.970Z,6.17
2018-07-14T10:30:26.621Z,6.37
2018-07-14T10:35:19.289Z,6.63
2018-07-14T10:40:11.973Z,5.80
2018-07-14T10:45:04.750Z,6.53
2018-07-14T10:49:57.369Z,6.47
2018-07-14T10:54:50.027Z,6.30
2018-07-14T10:59:42.626Z,7.10
2018-07-14T11:04:35.338Z,6.57
2018-07-14T11:09:28.144Z,6.33
2018-07-14T11:14:20.739Z,6.47
2018-07-14T11:19:13.438Z,6.20
2018-07-14T11:24:06.102Z,7.23
2018-07-14T11:28:58.665Z,6.97
2018-07-14T11:33:51.346Z,7.13
2018-07-14T11:38:44.071Z,7.60
2018-07-14T11:43:36.754Z,7.37
2018-07-14T11:48:29.379Z,7.53
2018-07-14T11:53:21.931Z,7.20
2018-07-14T11:58:14.542Z,6.00
2018-07-14T12:03:07.203Z,6.40
2018-07-14T12:07:59.873Z,7.40
2018-07-14T12:12:52.549Z,6.17
2018-07-14T12:17:45.158Z,6.17
2018-07-14T12:22:37.830Z,5.70
2018-07-14T12:27:30.484Z,5.30
2018-07-14T12:32:23.074Z,5.20
2018-07-14T12:37:15.752Z,5.53
2018-07-14T12:42:08.394Z,5.60
2018-07-14T12:47:01.115Z,5.93
2018-07-14T12:51:53.690Z,5.77
2018-07-14T12:56:46.261Z,5.60
2018-07-14T13:01:39.143Z,5.13
2018-07-14T13:06:31.772Z,5.80
2018-07-14T13:11:24.486Z,5.40
2018-07-14T13:16:17.805Z,5.30
2018-07-14T13:21:10.544Z,5.30
2018-07-14T13:26:03.164Z,5.60
2018-07-14T13:30:55.758Z,5.10
2018-07-14T13:35:48.396Z,4.97
2018-07-14T13:40:40.935Z,4.33
2018-07-14T13:45:33.547Z,4.13
2018-07-14T13:50:26.234Z,4.50
2018-07-14T13:55:18.890Z,4.40
2018-07-14T14:00:11.442Z,4.20
2018-07-14T14:05:04.229Z,3.50
2018-07-14T14:09:56.778Z,3.83
2018-07-14T14:14:49.383Z,3.23
2018-07-14T14:19:42.023Z,3.47
2018-07-14T14:24:34.675Z,3.80
2018-07-14T14:29:27.371Z,3.00
2018-07-14T14:34:19.889Z,3.00
2018-07-14T14:39:12.462Z,3.40
2018-07-14T14:44:17.720Z,3.00
2018-07-14T14:49:10.277Z,2.97
2018-07-14T14:54:03.017Z,3.00
2018-07-14T14:58:55.622Z,3.10
2018-07-14T15:03:48.221Z,2.40
2018-07-14T15:08:40.851Z,3.00
2018-07-14T15:13:33.492Z,2.60
2018-07-14T15:18:26.068Z,2.60
2018-07-14T15:23:18.682Z,3.00
2018-07-14T15:28:11.402Z,2.97
2018-07-14T15:33:04.228Z,2.97
2018-07-14T15:37:56.562Z,2.50
2018-07-14T15:42:49.239Z,2.37
2018-07-14T15:47:41.913Z,2.90
2018-07-14T15:52:34.507Z,2.57
2018-07-14T15:57:27.102Z,2.67
2018-07-14T16:02:19.707Z,2.63
2018-07-14T16:07:12.297Z,2.47
2018-07-14T16:12:05.573Z,2.80
2018-07-14T16:16:58.167Z,2.80
2018-07-14T16:21:50.799Z,2.27
2018-07-14T16:26:43.463Z,3.00
2018-07-14T16:31:36.101Z,2.23
2018-07-14T16:36:28.763Z,2.43
2018-07-14T16:41:21.394Z,2.40
2018-07-14T16:46:14.084Z,2.50
2018-07-14T16:51:07.235Z,2.50
2018-07-14T16:56:00.150Z,2.40
2018-07-14T17:00:52.747Z,2.60
2018-07-14T17:05:45.334Z,2.33
2018-07-14T17:10:38.016Z,2.30
2018-07-14T17:15:30.590Z,2.40
2018-07-14T17:20:23.359Z,2.43
2018-07-14T17:25:15.951Z,3.10
2018-07-14T17:30:08.629Z,2.67
2018-07-14T17:35:01.172Z,2.40
2018-07-14T17:39:53.829Z,2.97
2018-07-14T17:44:46.389Z,2.55
2018-07-14T17:49:38.940Z,2.30
2018-07-14T17:54:31.605Z,2.30
2018-07-14T17:59:24.186Z,2.30
2018-07-14T18:04:16.762Z,3.03
2018-07-14T18:09:10.241Z,2.57
2018-07-14T18:14:02.861Z,2.60
2018-07-14T18:18:55.468Z,2.80
2018-07-14T18:23:48.079Z,2.33
2018-07-14T18:28:40.722Z,2.47
2018-07-14T18:33:33.285Z,4.03
2018-07-14T18:38:25.850Z,2.73
2018-07-14T18:43:18.471Z,2.53
2018-07-14T18:48:11.878Z,2.57
2018-07-14T18:53:04.921Z,2.50
2018-07-14T18:57:57.510Z,2.30
2018-07-14T19:02:50.144Z,2.70
2018-07-14T19:07:42.726Z,2.63
2018-07-14T19:12:35.458Z,2.30
2018-07-14T19:17:28.215Z,2.50
2018-07-14T19:22:20.827Z,2.63
2018-07-14T19:27:13.418Z,2.83
2018-07-14T19:32:06.379Z,2.40
2018-07-14T19:36:59.043Z,2.40
2018-07-14T19:41:51.782Z,2.40
2018-07-14T19:46:44.322Z,2.47
2018-07-14T19:51:37.004Z,2.30
2018-07-14T19:56:29.579Z,2.77
2018-07-14T20:01:22.184Z,2.40
2018-07-14T20:06:14.767Z,2.80
2018-07-14T20:11:07.530Z,2.73
2018-07-14T20:16:00.057Z,2.83
2018-07-14T20:20:53.559Z,3.20
2018-07-14T20:25:46.118Z,3.00
2018-07-14T20:30:38.678Z,3.03
2018-07-14T20:35:31.233Z,2.67
2018-07-14T20:40:23.836Z,2.33
2018-07-14T20:45:16.367Z,2.50
2018-07-14T20:50:09.186Z,2.43
2018-07-14T20:55:02.044Z,2.50
2018-07-14T20:59:54.679Z,2.70
2018-07-14T21:04:47.255Z,2.20
2018-07-14T21:09:39.871Z,2.60
2018-07-14T21:14:32.634Z,2.33
2018-07-14T21:19:25.212Z,2.43
2018-07-14T21:24:17.832Z,2.17
2018-07-14T21:29:10.508Z,2.57
2018-07-14T21:34:03.104Z,2.20
2018-07-14T21:38:55.685Z,2.50
2018-07-14T21:43:48.342Z,2.53
2018-07-14T21:48:40.971Z,2.10
2018-07-14T21:53:33.531Z,2.23
2018-07-14T21:58:26.111Z,2.30
2018-07-14T22:03:18.761Z,2.00
2018-07-14T22:08:11.416Z,2.10
2018-07-14T22:13:04.955Z,2.00
2018-07-14T22:17:57.498Z,2.07
2018-07-14T22:22:50.490Z,2.40
2018-07-14T22:27:43.143Z,2.00
2018-07-14T22:32:35.738Z,2.20
2018-07-14T22:37:28.293Z,2.20
2018-07-14T22:42:20.930Z,2.37
2018-07-14T22:47:13.578Z,2.43
2018-07-14T22:52:06.885Z,2.80
2018-07-14T22:56:59.451Z,3.40
2018-07-14T23:01:52.064Z,2.60
2018-07-14T23:06:44.678Z,3.00
2018-07-14T23:11:37.283Z,2.40
2018-07-14T23:16:29.977Z,2.40
2018-07-14T23:21:22.587Z,2.53
2018-07-14T23:26:15.169Z,3.00
2018-07-14T23:31:07.729Z,3.23
2018-07-14T23:36:00.321Z,3.00
2018-07-14T23:40:52.923Z,3.10
2018-07-14T23:45:45.606Z,3.30
2018-07-14T23:50:38.162Z,3.47
2018-07-14T23:55:30.870Z,3.50
